Kezdőlap
METAR-TAF:

METAR-TAF

Repülőterek :

Hemphill County Airport

Canadian, Texas, Amerikai Egyesült Államok

földrajzi szélesség: 35-54N, földrajzi hosszúság: 100-24W, magasság: 730 m

Jelenlegi meteorológiai megfigyelések

A jelentés 27 perccel ezelõtt készült, 10:55 UTC
Déli szél 16 kt széllökések: 24 kt
Hőmérséklet 26°C
Páratartalom 45%
Légköri nyomás 1012 hPa
Látótávolság: 16.1 km
Derült ég

METAR: KHHF 151055Z AUTO 18016G24KT 10SM CLR 26/13 A2988 RMK AO2 T02560125

Idő: 06:22 (11:22 UTC)


TAF: hiányzik

Meteorológiai megfigyelések és előrejelzések több, mint 4000 repülőtéren (METAR és TAF jelentéseket).

A térképen piros és sárga pontok jelzik az elérhető meteorológiai állomásokat.

Mozgassa az egeret a pont fölött, hogy megjelenjen az állomás neve.

Azután kattintson az időjárási megfigyelések és előrejelzések megtekintéséhez.

A térkép megváltoztatása: kattintson a fekete keresztel jelölt zöld gombra ráközelítéshez, a vonallal jelölt zöld gombra távolításhoz, vagy a zöld nyilakra a szomszédos térképek eléréséhez.


METAR-TAF: